sensor_id;sensor_type;location;lat;lon;timestamp;temperature;humidity
17452;DHT22;8843;48.838;9.324;2024-02-26T00:02:01;9.30;85.80
17452;DHT22;8843;48.838;9.324;2024-02-26T00:04:29;9.30;85.80
17452;DHT22;8843;48.838;9.324;2024-02-26T00:06:57;9.30;86.60
17452;DHT22;8843;48.838;9.324;2024-02-26T00:09:24;9.30;86.00
17452;DHT22;8843;48.838;9.324;2024-02-26T00:11:51;9.30;85.70
17452;DHT22;8843;48.838;9.324;2024-02-26T00:14:18;9.30;85.70
17452;DHT22;8843;48.838;9.324;2024-02-26T00:16:45;9.30;85.90
17452;DHT22;8843;48.838;9.324;2024-02-26T00:19:16;9.30;85.90
17452;DHT22;8843;48.838;9.324;2024-02-26T00:21:48;9.30;85.90
17452;DHT22;8843;48.838;9.324;2024-02-26T00:24:15;9.30;86.00
17452;DHT22;8843;48.838;9.324;2024-02-26T00:26:41;9.30;85.90
17452;DHT22;8843;48.838;9.324;2024-02-26T00:29:08;9.30;85.80
17452;DHT22;8843;48.838;9.324;2024-02-26T00:31:36;9.30;86.10
17452;DHT22;8843;48.838;9.324;2024-02-26T00:34:04;9.30;86.10
17452;DHT22;8843;48.838;9.324;2024-02-26T00:36:31;9.30;86.00
17452;DHT22;8843;48.838;9.324;2024-02-26T00:39:00;9.30;85.40
17452;DHT22;8843;48.838;9.324;2024-02-26T00:41:29;9.30;86.00
17452;DHT22;8843;48.838;9.324;2024-02-26T00:43:57;9.30;86.10
17452;DHT22;8843;48.838;9.324;2024-02-26T00:46:24;9.30;86.20
17452;DHT22;8843;48.838;9.324;2024-02-26T00:48:51;9.30;86.20
17452;DHT22;8843;48.838;9.324;2024-02-26T00:51:18;9.30;86.30
17452;DHT22;8843;48.838;9.324;2024-02-26T00:53:45;9.30;86.10
17452;DHT22;8843;48.838;9.324;2024-02-26T00:56:13;9.30;86.30
17452;DHT22;8843;48.838;9.324;2024-02-26T00:58:42;9.30;86.30
17452;DHT22;8843;48.838;9.324;2024-02-26T01:01:09;9.30;86.40
17452;DHT22;8843;48.838;9.324;2024-02-26T01:03:36;9.30;86.40
17452;DHT22;8843;48.838;9.324;2024-02-26T01:06:03;9.30;86.50
17452;DHT22;8843;48.838;9.324;2024-02-26T01:08:31;9.20;86.30
17452;DHT22;8843;48.838;9.324;2024-02-26T01:10:58;9.30;86.50
17452;DHT22;8843;48.838;9.324;2024-02-26T01:13:26;9.30;86.50
17452;DHT22;8843;48.838;9.324;2024-02-26T01:15:53;9.30;86.50
17452;DHT22;8843;48.838;9.324;2024-02-26T01:18:21;9.30;86.50
17452;DHT22;8843;48.838;9.324;2024-02-26T01:20:49;9.30;86.50
17452;DHT22;8843;48.838;9.324;2024-02-26T01:23:16;9.30;86.60
17452;DHT22;8843;48.838;9.324;2024-02-26T01:25:43;9.30;86.60
17452;DHT22;8843;48.838;9.324;2024-02-26T01:28:10;9.30;86.50
17452;DHT22;8843;48.838;9.324;2024-02-26T01:30:38;9.30;86.70
17452;DHT22;8843;48.838;9.324;2024-02-26T01:33:05;9.30;86.60
17452;DHT22;8843;48.838;9.324;2024-02-26T01:35:32;9.30;86.70
17452;DHT22;8843;48.838;9.324;2024-02-26T01:38:00;9.30;86.60
17452;DHT22;8843;48.838;9.324;2024-02-26T01:40:27;9.30;86.50
17452;DHT22;8843;48.838;9.324;2024-02-26T01:42:54;9.20;86.60
17452;DHT22;8843;48.838;9.324;2024-02-26T01:45:22;9.30;86.60
17452;DHT22;8843;48.838;9.324;2024-02-26T01:47:52;9.30;86.70
17452;DHT22;8843;48.838;9.324;2024-02-26T01:50:19;9.30;86.70
17452;DHT22;8843;48.838;9.324;2024-02-26T01:52:48;9.30;86.70
17452;DHT22;8843;48.838;9.324;2024-02-26T01:55:18;9.30;86.70
17452;DHT22;8843;48.838;9.324;2024-02-26T01:57:46;9.30;86.70
17452;DHT22;8843;48.838;9.324;2024-02-26T02:00:16;9.30;86.90
17452;DHT22;8843;48.838;9.324;2024-02-26T02:02:43;9.30;86.80
17452;DHT22;8843;48.838;9.324;2024-02-26T02:05:15;9.30;86.90
17452;DHT22;8843;48.838;9.324;2024-02-26T02:07:43;9.30;86.90
17452;DHT22;8843;48.838;9.324;2024-02-26T02:10:10;9.30;86.90
17452;DHT22;8843;48.838;9.324;2024-02-26T02:12:37;9.30;86.90
17452;DHT22;8843;48.838;9.324;2024-02-26T02:15:06;9.20;86.90
17452;DHT22;8843;48.838;9.324;2024-02-26T02:17:33;9.20;86.90
17452;DHT22;8843;48.838;9.324;2024-02-26T02:20:01;9.20;86.90
17452;DHT22;8843;48.838;9.324;2024-02-26T02:22:30;9.30;87.00
17452;DHT22;8843;48.838;9.324;2024-02-26T02:24:57;9.20;87.00
17452;DHT22;8843;48.838;9.324;2024-02-26T02:27:26;9.20;87.00
17452;DHT22;8843;48.838;9.324;2024-02-26T02:29:53;9.20;87.00
17452;DHT22;8843;48.838;9.324;2024-02-26T02:32:20;9.30;87.10
17452;DHT22;8843;48.838;9.324;2024-02-26T02:34:48;9.20;86.90
17452;DHT22;8843;48.838;9.324;2024-02-26T02:37:15;9.20;86.90
17452;DHT22;8843;48.838;9.324;2024-02-26T02:39:43;9.20;87.10
17452;DHT22;8843;48.838;9.324;2024-02-26T02:42:11;9.20;87.90
17452;DHT22;8843;48.838;9.324;2024-02-26T02:44:38;9.20;87.10
17452;DHT22;8843;48.838;9.324;2024-02-26T02:47:05;9.20;87.20
17452;DHT22;8843;48.838;9.324;2024-02-26T02:49:32;9.20;87.20
17452;DHT22;8843;48.838;9.324;2024-02-26T02:51:59;9.20;87.20
17452;DHT22;8843;48.838;9.324;2024-02-26T02:54:27;9.20;87.00
17452;DHT22;8843;48.838;9.324;2024-02-26T02:56:55;9.20;87.10
17452;DHT22;8843;48.838;9.324;2024-02-26T02:59:24;9.30;87.20
17452;DHT22;8843;48.838;9.324;2024-02-26T03:01:51;9.20;86.90
17452;DHT22;8843;48.838;9.324;2024-02-26T03:04:20;9.30;87.00
17452;DHT22;8843;48.838;9.324;2024-02-26T03:06:48;9.20;87.10
17452;DHT22;8843;48.838;9.324;2024-02-26T03:09:15;9.20;87.30
17452;DHT22;8843;48.838;9.324;2024-02-26T03:11:42;9.20;87.30
17452;DHT22;8843;48.838;9.324;2024-02-26T03:14:11;9.20;87.30
17452;DHT22;8843;48.838;9.324;2024-02-26T03:16:38;9.20;87.40
17452;DHT22;8843;48.838;9.324;2024-02-26T03:19:05;9.20;87.40
17452;DHT22;8843;48.838;9.324;2024-02-26T03:21:32;9.20;87.60
17452;DHT22;8843;48.838;9.324;2024-02-26T03:24:00;9.20;87.60
17452;DHT22;8843;48.838;9.324;2024-02-26T03:26:27;9.20;87.60
17452;DHT22;8843;48.838;9.324;2024-02-26T03:28:56;9.20;87.60
17452;DHT22;8843;48.838;9.324;2024-02-26T03:31:25;9.20;87.70
17452;DHT22;8843;48.838;9.324;2024-02-26T03:33:52;9.20;87.70
17452;DHT22;8843;48.838;9.324;2024-02-26T03:36:19;9.20;87.60
17452;DHT22;8843;48.838;9.324;2024-02-26T03:38:49;9.20;88.40
17452;DHT22;8843;48.838;9.324;2024-02-26T03:41:16;9.20;87.70
17452;DHT22;8843;48.838;9.324;2024-02-26T03:43:47;9.20;87.60
17452;DHT22;8843;48.838;9.324;2024-02-26T03:46:14;9.20;87.70
17452;DHT22;8843;48.838;9.324;2024-02-26T03:48:42;9.20;87.70
17452;DHT22;8843;48.838;9.324;2024-02-26T03:51:09;9.20;87.70
17452;DHT22;8843;48.838;9.324;2024-02-26T03:53:36;9.20;88.00
17452;DHT22;8843;48.838;9.324;2024-02-26T03:56:06;9.20;87.80
17452;DHT22;8843;48.838;9.324;2024-02-26T03:58:33;9.20;87.80
17452;DHT22;8843;48.838;9.324;2024-02-26T04:01:00;9.20;87.80
17452;DHT22;8843;48.838;9.324;2024-02-26T04:03:29;9.20;87.80
17452;DHT22;8843;48.838;9.324;2024-02-26T04:05:58;9.20;88.00
17452;DHT22;8843;48.838;9.324;2024-02-26T04:08:25;9.20;88.00
17452;DHT22;8843;48.838;9.324;2024-02-26T04:10:53;9.20;88.10
17452;DHT22;8843;48.838;9.324;2024-02-26T04:13:22;9.20;88.10
17452;DHT22;8843;48.838;9.324;2024-02-26T04:15:49;9.10;88.10
17452;DHT22;8843;48.838;9.324;2024-02-26T04:18:16;9.20;88.20
17452;DHT22;8843;48.838;9.324;2024-02-26T04:20:43;9.20;88.30
17452;DHT22;8843;48.838;9.324;2024-02-26T04:23:12;9.20;88.40
17452;DHT22;8843;48.838;9.324;2024-02-26T04:25:40;9.20;88.30
17452;DHT22;8843;48.838;9.324;2024-02-26T04:28:08;9.20;88.00
17452;DHT22;8843;48.838;9.324;2024-02-26T04:30:36;9.20;88.40
17452;DHT22;8843;48.838;9.324;2024-02-26T04:33:03;9.20;88.40
17452;DHT22;8843;48.838;9.324;2024-02-26T04:35:31;9.20;89.20
17452;DHT22;8843;48.838;9.324;2024-02-26T04:38:01;9.20;88.40
17452;DHT22;8843;48.838;9.324;2024-02-26T04:40:29;9.20;88.50
17452;DHT22;8843;48.838;9.324;2024-02-26T04:42:59;9.20;88.50
17452;DHT22;8843;48.838;9.324;2024-02-26T04:45:26;9.10;88.40
17452;DHT22;8843;48.838;9.324;2024-02-26T04:47:54;9.20;88.40
17452;DHT22;8843;48.838;9.324;2024-02-26T04:50:23;9.20;87.90
17452;DHT22;8843;48.838;9.324;2024-02-26T04:52:50;9.20;88.50
17452;DHT22;8843;48.838;9.324;2024-02-26T04:55:20;9.10;88.50
17452;DHT22;8843;48.838;9.324;2024-02-26T04:57:49;9.10;88.40
17452;DHT22;8843;48.838;9.324;2024-02-26T05:00:17;9.20;88.00
17452;DHT22;8843;48.838;9.324;2024-02-26T05:02:44;9.10;88.40
17452;DHT22;8843;48.838;9.324;2024-02-26T05:05:11;9.10;87.20
17452;DHT22;8843;48.838;9.324;2024-02-26T05:07:42;9.10;88.60
17452;DHT22;8843;48.838;9.324;2024-02-26T05:10:09;9.10;88.50
17452;DHT22;8843;48.838;9.324;2024-02-26T05:12:37;9.10;88.60
17452;DHT22;8843;48.838;9.324;2024-02-26T05:15:07;9.10;88.60
17452;DHT22;8843;48.838;9.324;2024-02-26T05:17:34;9.10;88.60
17452;DHT22;8843;48.838;9.324;2024-02-26T05:20:01;9.20;88.70
17452;DHT22;8843;48.838;9.324;2024-02-26T05:22:30;9.10;88.60
17452;DHT22;8843;48.838;9.324;2024-02-26T05:24:57;9.10;88.70
17452;DHT22;8843;48.838;9.324;2024-02-26T05:27:24;9.10;88.50
17452;DHT22;8843;48.838;9.324;2024-02-26T05:29:52;9.10;88.70
17452;DHT22;8843;48.838;9.324;2024-02-26T05:32:22;9.10;88.60
17452;DHT22;8843;48.838;9.324;2024-02-26T05:34:49;9.20;88.80
17452;DHT22;8843;48.838;9.324;2024-02-26T05:37:16;9.70;92.40
17452;DHT22;8843;48.838;9.324;2024-02-26T05:39:44;10.90;88.50
17452;DHT22;8843;48.838;9.324;2024-02-26T05:42:11;11.30;84.70
17452;DHT22;8843;48.838;9.324;2024-02-26T05:44:40;11.50;84.50
17452;DHT22;8843;48.838;9.324;2024-02-26T05:47:07;11.60;83.60
17452;DHT22;8843;48.838;9.324;2024-02-26T05:49:37;11.40;82.90
17452;DHT22;8843;48.838;9.324;2024-02-26T05:52:04;10.90;85.70
17452;DHT22;8843;48.838;9.324;2024-02-26T05:54:31;10.50;85.90
17452;DHT22;8843;48.838;9.324;2024-02-26T05:56:58;10.10;86.70
17452;DHT22;8843;48.838;9.324;2024-02-26T05:59:25;9.80;87.70
17452;DHT22;8843;48.838;9.324;2024-02-26T06:01:52;9.50;88.40
17452;DHT22;8843;48.838;9.324;2024-02-26T06:04:19;9.50;89.10
17452;DHT22;8843;48.838;9.324;2024-02-26T06:06:48;9.40;89.60
17452;DHT22;8843;48.838;9.324;2024-02-26T06:09:15;9.40;89.80
17452;DHT22;8843;48.838;9.324;2024-02-26T06:11:42;9.30;89.80
17452;DHT22;8843;48.838;9.324;2024-02-26T06:14:09;9.30;89.80
17452;DHT22;8843;48.838;9.324;2024-02-26T06:16:38;9.30;90.00
17452;DHT22;8843;48.838;9.324;2024-02-26T06:19:06;9.20;88.50
17452;DHT22;8843;48.838;9.324;2024-02-26T06:21:33;9.00;82.10
17452;DHT22;8843;48.838;9.324;2024-02-26T06:24:02;8.80;81.80
17452;DHT22;8843;48.838;9.324;2024-02-26T06:26:29;8.60;82.10
17452;DHT22;8843;48.838;9.324;2024-02-26T06:28:59;8.60;82.50
17452;DHT22;8843;48.838;9.324;2024-02-26T06:31:26;8.60;86.40
17452;DHT22;8843;48.838;9.324;2024-02-26T06:33:53;8.90;86.30
17452;DHT22;8843;48.838;9.324;2024-02-26T06:36:22;9.20;85.20
17452;DHT22;8843;48.838;9.324;2024-02-26T06:38:50;9.50;86.70
17452;DHT22;8843;48.838;9.324;2024-02-26T06:41:19;9.70;85.80
17452;DHT22;8843;48.838;9.324;2024-02-26T06:43:46;10.10;84.90
17452;DHT22;8843;48.838;9.324;2024-02-26T06:46:13;10.40;83.80
17452;DHT22;8843;48.838;9.324;2024-02-26T06:48:40;10.50;83.10
17452;DHT22;8843;48.838;9.324;2024-02-26T06:51:07;10.50;82.50
17452;DHT22;8843;48.838;9.324;2024-02-26T06:53:34;10.60;86.40
17452;DHT22;8843;48.838;9.324;2024-02-26T06:56:01;10.10;86.40
17452;DHT22;8843;48.838;9.324;2024-02-26T06:58:37;10.20;86.00
17452;DHT22;8843;48.838;9.324;2024-02-26T07:01:08;9.90;88.00
17452;DHT22;8843;48.838;9.324;2024-02-26T07:03:35;9.70;88.40
17452;DHT22;8843;48.838;9.324;2024-02-26T07:06:02;9.50;88.80
17452;DHT22;8843;48.838;9.324;2024-02-26T07:08:30;9.40;89.20
17452;DHT22;8843;48.838;9.324;2024-02-26T07:10:57;9.30;89.40
17452;DHT22;8843;48.838;9.324;2024-02-26T07:13:25;9.30;89.70
17452;DHT22;8843;48.838;9.324;2024-02-26T07:15:55;9.30;89.90
17452;DHT22;8843;48.838;9.324;2024-02-26T07:18:23;9.20;89.90
17452;DHT22;8843;48.838;9.324;2024-02-26T07:20:50;9.20;90.00
17452;DHT22;8843;48.838;9.324;2024-02-26T07:23:17;9.20;90.00
17452;DHT22;8843;48.838;9.324;2024-02-26T07:25:44;9.20;90.10
17452;DHT22;8843;48.838;9.324;2024-02-26T07:28:12;9.20;90.10
17452;DHT22;8843;48.838;9.324;2024-02-26T07:30:45;9.20;90.10
17452;DHT22;8843;48.838;9.324;2024-02-26T07:33:14;9.40;91.40
17452;DHT22;8843;48.838;9.324;2024-02-26T07:35:41;9.50;90.40
17452;DHT22;8843;48.838;9.324;2024-02-26T07:38:08;9.40;89.70
17452;DHT22;8843;48.838;9.324;2024-02-26T07:40:35;9.30;90.00
17452;DHT22;8843;48.838;9.324;2024-02-26T07:43:03;9.20;90.00
17452;DHT22;8843;48.838;9.324;2024-02-26T07:45:30;9.20;90.10
17452;DHT22;8843;48.838;9.324;2024-02-26T07:47:57;9.20;90.20
17452;DHT22;8843;48.838;9.324;2024-02-26T07:50:26;9.20;90.20
17452;DHT22;8843;48.838;9.324;2024-02-26T07:52:53;9.10;90.20
17452;DHT22;8843;48.838;9.324;2024-02-26T07:55:20;9.10;90.30
17452;DHT22;8843;48.838;9.324;2024-02-26T07:57:47;9.10;90.20
17452;DHT22;8843;48.838;9.324;2024-02-26T08:00:16;9.10;90.30
17452;DHT22;8843;48.838;9.324;2024-02-26T08:02:43;9.10;90.30
17452;DHT22;8843;48.838;9.324;2024-02-26T08:05:11;9.10;90.30
17452;DHT22;8843;48.838;9.324;2024-02-26T08:07:43;9.10;90.30
17452;DHT22;8843;48.838;9.324;2024-02-26T08:10:10;9.10;90.30
17452;DHT22;8843;48.838;9.324;2024-02-26T08:12:40;9.10;90.40
17452;DHT22;8843;48.838;9.324;2024-02-26T08:15:07;9.10;90.40
17452;DHT22;8843;48.838;9.324;2024-02-26T08:17:36;9.10;90.40
17452;DHT22;8843;48.838;9.324;2024-02-26T08:20:07;9.10;90.40
17452;DHT22;8843;48.838;9.324;2024-02-26T08:22:34;9.10;90.40
17452;DHT22;8843;48.838;9.324;2024-02-26T08:25:05;9.10;90.40
17452;DHT22;8843;48.838;9.324;2024-02-26T08:27:34;9.10;90.40
17452;DHT22;8843;48.838;9.324;2024-02-26T08:30:03;9.10;90.50
17452;DHT22;8843;48.838;9.324;2024-02-26T08:32:31;9.10;90.50
17452;DHT22;8843;48.838;9.324;2024-02-26T08:35:00;9.10;90.40
17452;DHT22;8843;48.838;9.324;2024-02-26T08:37:27;9.10;90.50
17452;DHT22;8843;48.838;9.324;2024-02-26T08:39:54;9.10;90.40
17452;DHT22;8843;48.838;9.324;2024-02-26T08:42:22;9.10;90.50
17452;DHT22;8843;48.838;9.324;2024-02-26T08:44:49;9.10;90.50
17452;DHT22;8843;48.838;9.324;2024-02-26T08:47:17;9.10;90.60
17452;DHT22;8843;48.838;9.324;2024-02-26T08:49:45;9.10;90.60
17452;DHT22;8843;48.838;9.324;2024-02-26T08:52:15;9.10;90.60
17452;DHT22;8843;48.838;9.324;2024-02-26T08:54:42;9.00;90.60
17452;DHT22;8843;48.838;9.324;2024-02-26T08:57:10;9.10;90.70
17452;DHT22;8843;48.838;9.324;2024-02-26T08:59:39;9.10;90.70
17452;DHT22;8843;48.838;9.324;2024-02-26T09:02:07;9.10;90.70
17452;DHT22;8843;48.838;9.324;2024-02-26T09:04:35;9.10;90.80
17452;DHT22;8843;48.838;9.324;2024-02-26T09:07:03;9.00;90.70
17452;DHT22;8843;48.838;9.324;2024-02-26T09:09:31;9.10;90.80
17452;DHT22;8843;48.838;9.324;2024-02-26T09:12:00;9.10;90.80
17452;DHT22;8843;48.838;9.324;2024-02-26T09:14:27;9.10;90.90
17452;DHT22;8843;48.838;9.324;2024-02-26T09:16:56;9.10;90.80
17452;DHT22;8843;48.838;9.324;2024-02-26T09:19:23;9.10;90.90
17452;DHT22;8843;48.838;9.324;2024-02-26T09:21:51;9.10;90.90
17452;DHT22;8843;48.838;9.324;2024-02-26T09:24:19;9.10;90.90
17452;DHT22;8843;48.838;9.324;2024-02-26T09:26:46;9.10;90.90
17452;DHT22;8843;48.838;9.324;2024-02-26T09:29:13;9.10;90.90
17452;DHT22;8843;48.838;9.324;2024-02-26T09:31:40;9.10;91.20
17452;DHT22;8843;48.838;9.324;2024-02-26T09:34:09;9.10;90.80
17452;DHT22;8843;48.838;9.324;2024-02-26T09:36:38;9.00;90.70
17452;DHT22;8843;48.838;9.324;2024-02-26T09:39:05;9.10;91.00
17452;DHT22;8843;48.838;9.324;2024-02-26T09:41:32;9.10;91.00
17452;DHT22;8843;48.838;9.324;2024-02-26T09:44:02;9.10;90.90
17452;DHT22;8843;48.838;9.324;2024-02-26T09:46:31;9.10;91.00
17452;DHT22;8843;48.838;9.324;2024-02-26T09:48:58;9.00;90.80
17452;DHT22;8843;48.838;9.324;2024-02-26T09:51:27;9.00;91.10
17452;DHT22;8843;48.838;9.324;2024-02-26T09:53:56;9.00;91.00
17452;DHT22;8843;48.838;9.324;2024-02-26T09:56:26;9.10;91.20
17452;DHT22;8843;48.838;9.324;2024-02-26T09:58:55;9.00;91.10
17452;DHT22;8843;48.838;9.324;2024-02-26T10:01:28;9.10;90.90
17452;DHT22;8843;48.838;9.324;2024-02-26T10:03:59;9.10;91.10
17452;DHT22;8843;48.838;9.324;2024-02-26T10:06:28;9.10;91.10
17452;DHT22;8843;48.838;9.324;2024-02-26T10:08:56;9.10;91.10
17452;DHT22;8843;48.838;9.324;2024-02-26T10:11:24;9.10;91.10
17452;DHT22;8843;48.838;9.324;2024-02-26T10:13:52;9.10;91.10
17452;DHT22;8843;48.838;9.324;2024-02-26T10:16:22;9.10;91.20
17452;DHT22;8843;48.838;9.324;2024-02-26T10:18:50;9.10;91.40
17452;DHT22;8843;48.838;9.324;2024-02-26T10:21:18;9.10;91.60
17452;DHT22;8843;48.838;9.324;2024-02-26T10:23:47;9.10;91.30
17452;DHT22;8843;48.838;9.324;2024-02-26T10:26:15;9.10;91.40
17452;DHT22;8843;48.838;9.324;2024-02-26T10:28:43;9.20;91.80
17452;DHT22;8843;48.838;9.324;2024-02-26T10:31:11;9.20;92.20
17452;DHT22;8843;48.838;9.324;2024-02-26T10:33:41;9.30;91.30
17452;DHT22;8843;48.838;9.324;2024-02-26T10:36:09;9.40;91.40
17452;DHT22;8843;48.838;9.324;2024-02-26T10:38:38;9.40;91.70
17452;DHT22;8843;48.838;9.324;2024-02-26T10:41:07;9.50;92.00
17452;DHT22;8843;48.838;9.324;2024-02-26T10:43:42;9.60;92.30
17452;DHT22;8843;48.838;9.324;2024-02-26T10:46:10;9.60;92.10
17452;DHT22;8843;48.838;9.324;2024-02-26T10:48:37;9.80;92.10
17452;DHT22;8843;48.838;9.324;2024-02-26T10:51:04;9.90;92.40
17452;DHT22;8843;48.838;9.324;2024-02-26T10:53:31;10.10;91.70
17452;DHT22;8843;48.838;9.324;2024-02-26T10:56:02;10.20;91.50
17452;DHT22;8843;48.838;9.324;2024-02-26T10:58:32;10.30;90.70
17452;DHT22;8843;48.838;9.324;2024-02-26T11:01:00;10.40;90.50
17452;DHT22;8843;48.838;9.324;2024-02-26T11:03:28;10.60;90.90
17452;DHT22;8843;48.838;9.324;2024-02-26T11:05:59;10.70;90.50
17452;DHT22;8843;48.838;9.324;2024-02-26T11:08:28;10.70;90.40
17452;DHT22;8843;48.838;9.324;2024-02-26T11:10:57;10.80;90.20
17452;DHT22;8843;48.838;9.324;2024-02-26T11:13:28;10.90;90.00
17452;DHT22;8843;48.838;9.324;2024-02-26T11:15:58;11.00;89.40
17452;DHT22;8843;48.838;9.324;2024-02-26T11:18:27;10.90;88.90
17452;DHT22;8843;48.838;9.324;2024-02-26T11:20:54;11.00;89.30
17452;DHT22;8843;48.838;9.324;2024-02-26T11:23:24;11.10;90.00
17452;DHT22;8843;48.838;9.324;2024-02-26T11:25:55;11.20;90.30
17452;DHT22;8843;48.838;9.324;2024-02-26T11:28:24;11.40;90.50
17452;DHT22;8843;48.838;9.324;2024-02-26T11:30:53;11.50;89.80
17452;DHT22;8843;48.838;9.324;2024-02-26T11:33:22;11.70;90.00
17452;DHT22;8843;48.838;9.324;2024-02-26T11:35:49;11.80;87.80
17452;DHT22;8843;48.838;9.324;2024-02-26T11:38:21;11.90;86.70
17452;DHT22;8843;48.838;9.324;2024-02-26T11:40:48;11.90;86.10
17452;DHT22;8843;48.838;9.324;2024-02-26T11:43:15;11.90;86.50
17452;DHT22;8843;48.838;9.324;2024-02-26T11:45:52;12.00;85.10
17452;DHT22;8843;48.838;9.324;2024-02-26T11:48:22;12.00;84.10
17452;DHT22;8843;48.838;9.324;2024-02-26T11:50:52;12.00;84.10
17452;DHT22;8843;48.838;9.324;2024-02-26T11:53:21;12.00;83.80
17452;DHT22;8843;48.838;9.324;2024-02-26T11:55:48;12.00;83.90
17452;DHT22;8843;48.838;9.324;2024-02-26T11:58:35;11.90;83.90
17452;DHT22;8843;48.838;9.324;2024-02-26T12:01:03;11.90;83.90
17452;DHT22;8843;48.838;9.324;2024-02-26T12:03:32;11.70;83.50
17452;DHT22;8843;48.838;9.324;2024-02-26T12:06:00;11.80;83.30
17452;DHT22;8843;48.838;9.324;2024-02-26T12:08:28;11.80;83.30
17452;DHT22;8843;48.838;9.324;2024-02-26T12:10:59;11.70;83.30
17452;DHT22;8843;48.838;9.324;2024-02-26T12:13:31;11.70;83.20
17452;DHT22;8843;48.838;9.324;2024-02-26T12:15:59;11.80;83.10
17452;DHT22;8843;48.838;9.324;2024-02-26T12:18:28;11.80;82.80
17452;DHT22;8843;48.838;9.324;2024-02-26T12:21:00;11.80;82.90
17452;DHT22;8843;48.838;9.324;2024-02-26T12:23:27;11.80;82.70
17452;DHT22;8843;48.838;9.324;2024-02-26T12:25:58;11.90;82.20
17452;DHT22;8843;48.838;9.324;2024-02-26T12:28:28;11.90;82.50
17452;DHT22;8843;48.838;9.324;2024-02-26T12:30:55;11.90;82.20
17452;DHT22;8843;48.838;9.324;2024-02-26T12:33:25;11.90;82.10
17452;DHT22;8843;48.838;9.324;2024-02-26T12:35:53;11.90;81.60
17452;DHT22;8843;48.838;9.324;2024-02-26T12:38:24;11.90;81.50
17452;DHT22;8843;48.838;9.324;2024-02-26T12:40:51;11.90;81.40
17452;DHT22;8843;48.838;9.324;2024-02-26T12:43:18;11.90;81.40
17452;DHT22;8843;48.838;9.324;2024-02-26T12:45:46;11.80;81.30
17452;DHT22;8843;48.838;9.324;2024-02-26T12:48:13;11.90;81.10
17452;DHT22;8843;48.838;9.324;2024-02-26T12:50:44;11.90;81.20
17452;DHT22;8843;48.838;9.324;2024-02-26T12:53:14;11.80;81.70
17452;DHT22;8843;48.838;9.324;2024-02-26T12:55:43;11.80;81.90
17452;DHT22;8843;48.838;9.324;2024-02-26T12:58:10;11.80;82.40
17452;DHT22;8843;48.838;9.324;2024-02-26T13:00:38;11.90;83.70
17452;DHT22;8843;48.838;9.324;2024-02-26T13:03:06;11.90;84.90
17452;DHT22;8843;48.838;9.324;2024-02-26T13:05:34;11.90;84.40
17452;DHT22;8843;48.838;9.324;2024-02-26T13:08:05;12.00;84.30
17452;DHT22;8843;48.838;9.324;2024-02-26T13:10:33;12.00;84.30
17452;DHT22;8843;48.838;9.324;2024-02-26T13:13:02;12.10;83.70
17452;DHT22;8843;48.838;9.324;2024-02-26T13:15:29;12.10;83.90
17452;DHT22;8843;48.838;9.324;2024-02-26T13:17:56;12.20;83.50
17452;DHT22;8843;48.838;9.324;2024-02-26T13:20:27;12.20;83.30
17452;DHT22;8843;48.838;9.324;2024-02-26T13:23:01;12.20;82.60
17452;DHT22;8843;48.838;9.324;2024-02-26T13:25:28;12.30;82.40
17452;DHT22;8843;48.838;9.324;2024-02-26T13:28:06;12.30;82.60
17452;DHT22;8843;48.838;9.324;2024-02-26T13:30:36;12.30;81.80
17452;DHT22;8843;48.838;9.324;2024-02-26T13:33:12;12.30;82.00
17452;DHT22;8843;48.838;9.324;2024-02-26T13:35:40;12.30;82.00
17452;DHT22;8843;48.838;9.324;2024-02-26T13:38:07;12.20;81.50
17452;DHT22;8843;48.838;9.324;2024-02-26T13:40:34;12.20;81.60
17452;DHT22;8843;48.838;9.324;2024-02-26T13:43:01;12.20;81.30
17452;DHT22;8843;48.838;9.324;2024-02-26T13:45:30;12.20;81.50
17452;DHT22;8843;48.838;9.324;2024-02-26T13:48:03;12.10;81.70
17452;DHT22;8843;48.838;9.324;2024-02-26T13:50:32;12.20;81.80
17452;DHT22;8843;48.838;9.324;2024-02-26T13:53:02;12.10;81.60
17452;DHT22;8843;48.838;9.324;2024-02-26T13:55:30;12.10;81.40
17452;DHT22;8843;48.838;9.324;2024-02-26T13:57:59;12.20;81.00
17452;DHT22;8843;48.838;9.324;2024-02-26T14:00:27;12.10;81.30
17452;DHT22;8843;48.838;9.324;2024-02-26T14:02:56;12.00;81.40
17452;DHT22;8843;48.838;9.324;2024-02-26T14:05:23;11.90;81.90
17452;DHT22;8843;48.838;9.324;2024-02-26T14:07:52;11.80;81.70
17452;DHT22;8843;48.838;9.324;2024-02-26T14:10:19;11.90;81.90
17452;DHT22;8843;48.838;9.324;2024-02-26T14:12:46;12.00;82.20
17452;DHT22;8843;48.838;9.324;2024-02-26T14:15:14;12.00;82.00
17452;DHT22;8843;48.838;9.324;2024-02-26T14:17:40;12.00;82.20
17452;DHT22;8843;48.838;9.324;2024-02-26T14:20:10;12.10;81.60
17452;DHT22;8843;48.838;9.324;2024-02-26T14:22:38;12.20;78.00
17452;DHT22;8843;48.838;9.324;2024-02-26T14:25:05;12.20;81.60
17452;DHT22;8843;48.838;9.324;2024-02-26T14:27:34;12.20;81.20
17452;DHT22;8843;48.838;9.324;2024-02-26T14:30:04;12.30;80.60
17452;DHT22;8843;48.838;9.324;2024-02-26T14:32:31;12.30;80.70
17452;DHT22;8843;48.838;9.324;2024-02-26T14:35:02;12.30;79.70
17452;DHT22;8843;48.838;9.324;2024-02-26T14:37:32;12.30;80.10
17452;DHT22;8843;48.838;9.324;2024-02-26T14:39:59;12.20;79.70
17452;DHT22;8843;48.838;9.324;2024-02-26T14:42:26;12.30;80.70
17452;DHT22;8843;48.838;9.324;2024-02-26T14:44:53;12.50;80.60
17452;DHT22;8843;48.838;9.324;2024-02-26T14:47:21;12.40;80.20
17452;DHT22;8843;48.838;9.324;2024-02-26T14:49:49;12.40;79.60
17452;DHT22;8843;48.838;9.324;2024-02-26T14:52:17;12.40;79.10
17452;DHT22;8843;48.838;9.324;2024-02-26T14:54:46;12.30;79.20
17452;DHT22;8843;48.838;9.324;2024-02-26T14:57:15;12.60;75.50
17452;DHT22;8843;48.838;9.324;2024-02-26T14:59:42;12.80;77.60
17452;DHT22;8843;48.838;9.324;2024-02-26T15:02:10;12.70;78.50
17452;DHT22;8843;48.838;9.324;2024-02-26T15:04:37;12.70;78.70
17452;DHT22;8843;48.838;9.324;2024-02-26T15:07:04;12.70;78.50
17452;DHT22;8843;48.838;9.324;2024-02-26T15:09:33;12.60;78.50
17452;DHT22;8843;48.838;9.324;2024-02-26T15:12:02;12.60;78.20
17452;DHT22;8843;48.838;9.324;2024-02-26T15:14:33;12.60;78.10
17452;DHT22;8843;48.838;9.324;2024-02-26T15:17:00;12.50;78.60
17452;DHT22;8843;48.838;9.324;2024-02-26T15:19:27;12.50;77.70
17452;DHT22;8843;48.838;9.324;2024-02-26T15:21:54;12.50;77.10
17452;DHT22;8843;48.838;9.324;2024-02-26T15:24:21;12.40;77.20
17452;DHT22;8843;48.838;9.324;2024-02-26T15:26:49;12.30;78.20
17452;DHT22;8843;48.838;9.324;2024-02-26T15:29:17;12.20;78.50
17452;DHT22;8843;48.838;9.324;2024-02-26T15:31:47;12.30;77.70
17452;DHT22;8843;48.838;9.324;2024-02-26T15:34:16;12.20;78.10
17452;DHT22;8843;48.838;9.324;2024-02-26T15:36:43;12.20;77.60
17452;DHT22;8843;48.838;9.324;2024-02-26T15:39:12;12.20;78.70
17452;DHT22;8843;48.838;9.324;2024-02-26T15:41:39;12.10;77.70
17452;DHT22;8843;48.838;9.324;2024-02-26T15:44:09;12.10;77.80
17452;DHT22;8843;48.838;9.324;2024-02-26T15:46:43;12.10;77.60
17452;DHT22;8843;48.838;9.324;2024-02-26T15:49:10;12.10;77.50
17452;DHT22;8843;48.838;9.324;2024-02-26T15:51:38;12.00;77.50
17452;DHT22;8843;48.838;9.324;2024-02-26T15:54:06;12.00;77.10
17452;DHT22;8843;48.838;9.324;2024-02-26T15:56:33;11.90;77.80
17452;DHT22;8843;48.838;9.324;2024-02-26T15:59:01;11.80;79.40
17452;DHT22;8843;48.838;9.324;2024-02-26T16:01:28;11.80;78.30